Time;durP1;ratioP1;P1;durP2;ratioP2;P2;SDS_P1;SDS_P2;PMS_P1;PMS_P2;Temp;Humidity;BMP_temperature;BMP_pressure;BME280_temperature;BME280_humidity;BME280_pressure;Samples;Min_cycle;Max_cycle;Signal;HPM_P1;HPM_P2
2021/10/11 00:01:50;;;;;;;87.38;54.40;;;11.60;92.80;;;;;;5029709;28;20057;-74
2021/10/11 00:04:16;;;;;;;78.47;48.10;;;11.60;92.80;;;;;;5029768;28;20045;-74
2021/10/11 00:06:41;;;;;;;95.80;56.60;;;11.60;92.90;;;;;;5037513;28;20033;-74
2021/10/11 00:09:07;;;;;;;88.63;53.58;;;11.60;92.90;;;;;;5050375;28;20072;-74
2021/10/11 00:11:33;;;;;;;95.05;55.80;;;11.70;93.00;;;;;;5050438;28;20112;-78
2021/10/11 00:13:59;;;;;;;96.15;56.40;;;11.70;93.00;;;;;;5051913;28;20036;-78
2021/10/11 00:16:25;;;;;;;97.95;56.05;;;11.70;93.10;;;;;;5051688;28;20033;-78
2021/10/11 00:18:50;;;;;;;110.13;61.53;;;11.70;93.10;;;;;;5017310;28;20021;-78
2021/10/11 00:21:16;;;;;;;97.65;57.40;;;11.70;93.20;;;;;;5036851;28;20033;-78
2021/10/11 00:23:42;;;;;;;92.07;55.13;;;11.80;93.30;;;;;;5032043;28;20109;-78
2021/10/11 00:26:08;;;;;;;116.18;63.30;;;11.80;93.30;;;;;;5032168;28;20104;-78
2021/10/11 00:28:34;;;;;;;111.60;59.90;;;11.80;93.30;;;;;;5051430;28;20725;-78
2021/10/11 00:30:59;;;;;;;88.28;53.92;;;11.80;93.30;;;;;;5050677;28;20025;-78
2021/10/11 00:33:25;;;;;;;103.05;59.58;;;11.90;93.40;;;;;;5017352;28;20053;-78
2021/10/11 00:35:51;;;;;;;95.57;53.80;;;11.90;93.40;;;;;;5083076;27;20102;-78
2021/10/11 00:38:16;;;;;;;108.03;59.13;;;11.90;93.50;;;;;;5036698;28;20129;-78
2021/10/11 00:40:42;;;;;;;110.47;61.95;;;12.00;93.50;;;;;;5051865;28;20493;-78
2021/10/11 00:43:07;;;;;;;105.15;59.72;;;12.00;93.60;;;;;;5051746;28;20116;-78
2021/10/11 00:45:33;;;;;;;108.38;60.83;;;12.00;93.70;;;;;;5051372;28;20041;-78
2021/10/11 00:47:59;;;;;;;114.07;61.90;;;12.10;93.70;;;;;;5033724;28;20052;-78
2021/10/11 00:50:25;;;;;;;134.07;68.13;;;12.10;93.80;;;;;;5034247;28;20033;-78
2021/10/11 00:52:50;;;;;;;125.35;64.65;;;12.10;93.90;;;;;;5031391;28;20033;-78
2021/10/11 00:55:16;;;;;;;97.72;56.25;;;12.10;93.90;;;;;;5042842;28;20588;-78
2021/10/11 00:57:42;;;;;;;93.85;52.78;;;12.20;94.00;;;;;;5050828;28;20116;-78
2021/10/11 01:00:08;;;;;;;86.10;49.15;;;12.20;94.10;;;;;;5049026;28;20442;-78
2021/10/11 01:02:34;;;;;;;116.28;56.33;;;12.20;94.10;;;;;;5031130;28;20481;-78
2021/10/11 01:05:00;;;;;;;103.75;54.85;;;12.30;94.20;;;;;;5047410;28;20063;-78
2021/10/11 01:07:26;;;;;;;117.10;53.75;;;12.30;94.20;;;;;;5050390;28;20061;-78
2021/10/11 01:09:52;;;;;;;100.80;52.17;;;12.30;94.70;;;;;;5050458;28;20036;-78
2021/10/11 01:12:17;;;;;;;95.28;48.78;;;12.30;94.50;;;;;;5039784;28;20041;-78
2021/10/11 01:14:43;;;;;;;90.40;46.78;;;12.40;94.60;;;;;;5048053;28;20029;-78
2021/10/11 01:17:09;;;;;;;77.30;42.30;;;12.40;94.70;;;;;;5032689;28;20430;-78
2021/10/11 01:19:37;;;;;;;70.70;36.80;;;12.40;94.70;;;;;;5031234;28;20431;-78
2021/10/11 01:22:03;;;;;;;67.93;35.15;;;12.50;94.80;;;;;;5032655;28;20397;-78
2021/10/11 01:24:29;;;;;;;50.83;30.17;;;12.50;94.80;;;;;;5031764;28;20055;-78
2021/10/11 01:26:55;;;;;;;51.00;29.75;;;12.50;94.90;;;;;;5050148;28;20497;-78
2021/10/11 01:29:21;;;;;;;72.75;33.95;;;12.50;94.90;;;;;;5032632;28;20028;-78
2021/10/11 01:31:47;;;;;;;48.00;28.45;;;12.50;94.90;;;;;;5049637;28;20057;-78
2021/10/11 01:34:13;;;;;;;52.92;28.90;;;12.50;94.90;;;;;;5029385;28;20572;-78
2021/10/11 01:36:39;;;;;;;61.92;32.00;;;12.60;94.90;;;;;;5032095;28;20211;-78
2021/10/11 01:39:07;;;;;;;46.70;27.67;;;12.60;94.90;;;;;;5032346;28;20061;-78
2021/10/11 01:41:32;;;;;;;38.03;23.05;;;12.60;94.90;;;;;;5032318;28;20021;-78
2021/10/11 01:43:58;;;;;;;52.83;27.13;;;12.50;94.90;;;;;;5030852;28;20052;-78
2021/10/11 01:46:24;;;;;;;49.35;26.08;;;12.60;94.90;;;;;;5049496;28;20119;-78
2021/10/11 01:48:50;;;;;;;46.95;26.38;;;12.60;94.90;;;;;;5028684;28;20060;-78
2021/10/11 01:51:16;;;;;;;38.15;22.13;;;12.60;94.90;;;;;;5043642;28;20037;-78
2021/10/11 01:53:42;;;;;;;36.03;21.02;;;12.60;94.90;;;;;;5030180;28;20397;-78
2021/10/11 01:56:07;;;;;;;34.50;20.20;;;12.50;94.80;;;;;;5018499;28;20030;-78
2021/10/11 01:58:33;;;;;;;42.17;23.95;;;12.50;94.80;;;;;;5048278;28;20424;-78
2021/10/11 02:01:00;;;;;;;37.60;21.90;;;12.50;94.80;;;;;;5048034;28;20033;-78
2021/10/11 02:03:26;;;;;;;40.85;23.15;;;12.50;94.80;;;;;;5041776;28;20033;-78
2021/10/11 02:05:51;;;;;;;32.03;20.30;;;12.50;94.80;;;;;;5027434;28;20108;-78
2021/10/11 02:08:17;;;;;;;31.63;19.70;;;12.50;94.90;;;;;;5049418;28;20033;-78
2021/10/11 02:10:43;;;;;;;41.97;22.55;;;12.50;94.80;;;;;;5049467;28;20032;-78
2021/10/11 02:13:08;;;;;;;32.88;20.25;;;12.50;94.80;;;;;;5049185;28;20037;-78
2021/10/11 02:15:34;;;;;;;31.85;20.23;;;12.50;94.80;;;;;;5049308;28;20029;-78
2021/10/11 02:17:59;;;;;;;35.38;20.55;;;12.50;94.80;;;;;;5043888;28;20077;-78
2021/10/11 02:20:26;;;;;;;38.70;20.88;;;12.50;94.80;;;;;;5049553;28;20544;-78
2021/10/11 02:22:52;;;;;;;32.17;19.73;;;12.50;94.80;;;;;;5031788;28;20029;-78
2021/10/11 02:25:18;;;;;;;41.95;22.13;;;12.50;94.90;;;;;;5038629;28;20362;-78
2021/10/11 02:27:44;;;;;;;39.95;22.65;;;12.50;94.90;;;;;;5049786;28;20040;-78
2021/10/11 02:30:11;;;;;;;38.47;21.88;;;12.50;94.90;;;;;;5031987;28;20025;-78
2021/10/11 02:32:38;;;;;;;37.50;21.17;;;12.50;94.90;;;;;;5049556;28;20049;-78
2021/10/11 02:35:06;;;;;;;43.38;23.10;;;12.50;94.90;;;;;;5049259;28;20033;-78
2021/10/11 02:37:31;;;;;;;36.10;21.35;;;12.50;94.90;;;;;;5049855;28;20029;-78
2021/10/11 02:39:57;;;;;;;46.53;23.30;;;12.50;94.90;;;;;;5049558;28;20050;-78
2021/10/11 02:42:23;;;;;;;40.25;23.50;;;12.50;94.90;;;;;;5049763;28;20492;-78
2021/10/11 02:44:49;;;;;;;37.72;21.50;;;12.50;94.90;;;;;;5048736;28;20060;-79
2021/10/11 02:47:15;;;;;;;37.65;22.33;;;12.50;94.90;;;;;;5031309;28;20040;-79
2021/10/11 02:49:41;;;;;;;45.80;24.05;;;12.50;94.90;;;;;;5049619;28;20474;-78
2021/10/11 02:52:07;;;;;;;54.13;25.38;;;12.50;95.00;;;;;;5049642;28;20037;-78
2021/10/11 02:54:33;;;;;;;55.70;27.38;;;12.50;95.00;;;;;;5050452;28;20029;-78
2021/10/11 02:56:58;;;;;;;55.17;27.27;;;12.50;95.00;;;;;;5052970;28;20917;-78
2021/10/11 02:59:24;;;;;;;59.90;28.73;;;12.50;95.00;;;;;;5026156;28;20034;-78
2021/10/11 03:01:50;;;;;;;47.90;25.35;;;12.50;95.10;;;;;;5033212;28;20078;-78
2021/10/11 03:04:15;;;;;;;55.33;25.38;;;12.50;95.10;;;;;;5047661;28;20533;-78
2021/10/11 03:06:41;;;;;;;41.53;22.27;;;12.50;95.10;;;;;;5053264;28;20040;-78
2021/10/11 03:09:06;;;;;;;49.95;24.67;;;12.50;95.10;;;;;;5052927;28;20029;-78
2021/10/11 03:11:32;;;;;;;67.80;25.65;;;12.50;95.10;;;;;;5035321;28;20465;-78
2021/10/11 03:13:58;;;;;;;38.53;21.13;;;12.50;95.10;;;;;;5043355;28;20054;-78
2021/10/11 03:16:24;;;;;;;58.22;24.45;;;12.50;95.20;;;;;;5031567;28;20022;-78
2021/10/11 03:18:50;;;;;;;46.72;20.38;;;12.50;95.20;;;;;;5042935;28;20040;-78
2021/10/11 03:21:21;;;;;;;41.05;19.38;;;12.50;95.20;;;;;;5034360;28;20381;-78
2021/10/11 03:23:50;;;;;;;42.92;19.55;;;12.50;95.20;;;;;;5052182;28;20029;-78
2021/10/11 03:26:17;;;;;;;43.42;18.05;;;12.50;95.20;;;;;;5035228;28;20035;-78
2021/10/11 03:28:43;;;;;;;44.70;19.95;;;12.50;95.20;;;;;;5052328;28;20025;-78
2021/10/11 03:31:09;;;;;;;45.03;18.67;;;12.50;95.20;;;;;;5052960;28;20101;-78
2021/10/11 03:33:35;;;;;;;36.50;18.05;;;12.50;95.20;;;;;;5034577;28;20687;-78
2021/10/11 03:36:01;;;;;;;41.72;18.00;;;12.50;95.20;;;;;;5052721;28;20492;-78
2021/10/11 03:38:26;;;;;;;36.22;17.15;;;12.50;95.20;;;;;;5051460;28;20453;-78
2021/10/11 03:40:52;;;;;;;48.78;17.67;;;12.50;95.20;;;;;;5047513;28;20039;-78
2021/10/11 03:43:18;;;;;;;37.47;18.10;;;12.50;95.20;;;;;;5050958;28;20036;-78
2021/10/11 03:45:43;;;;;;;41.00;17.90;;;12.50;95.20;;;;;;5017597;28;20378;-78
2021/10/11 03:48:09;;;;;;;50.45;18.98;;;12.50;95.30;;;;;;5034111;28;21821;-78
2021/10/11 03:50:35;;;;;;;40.15;17.42;;;12.50;95.30;;;;;;5034387;28;20051;-78
2021/10/11 03:53:00;;;;;;;39.53;16.20;;;12.50;95.30;;;;;;5052298;28;20029;-78
2021/10/11 03:55:26;;;;;;;35.10;15.90;;;12.50;95.30;;;;;;5034483;28;20164;-78
2021/10/11 03:57:51;;;;;;;37.00;15.82;;;12.50;95.30;;;;;;5038818;28;20041;-78
2021/10/11 04:00:17;;;;;;;38.35;16.25;;;12.50;95.30;;;;;;5032483;28;20025;-78
2021/10/11 04:02:43;;;;;;;35.10;15.90;;;12.50;95.30;;;;;;5048938;28;20099;-78
2021/10/11 04:05:09;;;;;;;29.65;14.25;;;12.50;95.30;;;;;;5030074;28;20150;-78
2021/10/11 04:07:36;;;;;;;39.08;16.15;;;12.40;95.30;;;;;;5049232;28;20032;-78
2021/10/11 04:10:05;;;;;;;37.55;16.13;;;12.50;95.30;;;;;;5033162;28;20036;-78
2021/10/11 04:12:38;;;;;;;49.45;18.10;;;12.40;95.30;;;;;;5050816;28;20022;-78
2021/10/11 04:15:06;;;;;;;32.55;14.80;;;12.50;95.30;;;;;;5051803;28;20831;-78
2021/10/11 04:17:37;;;;;;;44.75;16.33;;;12.40;95.30;;;;;;5027862;28;20114;-76
2021/10/11 04:20:04;;;;;;;33.88;14.98;;;12.40;95.30;;;;;;5049711;28;20032;-76
2021/10/11 04:22:30;;;;;;;36.70;14.30;;;12.40;95.30;;;;;;5050908;28;20093;-76
2021/10/11 04:24:55;;;;;;;26.98;13.52;;;12.50;95.30;;;;;;5033586;28;20025;-76
2021/10/11 04:27:21;;;;;;;32.08;14.35;;;12.40;95.30;;;;;;5051599;28;20449;-76
2021/10/11 04:29:46;;;;;;;31.67;14.07;;;12.40;95.20;;;;;;5051806;28;20032;-76
2021/10/11 04:32:12;;;;;;;26.95;13.18;;;12.40;95.30;;;;;;5034003;28;20053;-77
2021/10/11 04:34:38;;;;;;;33.80;12.32;;;12.40;95.20;;;;;;5049775;27;20065;-76
2021/10/11 04:37:03;;;;;;;30.27;11.82;;;12.40;95.20;;;;;;5031878;28;20036;-77
2021/10/11 04:39:29;;;;;;;33.25;11.85;;;12.40;95.20;;;;;;5035016;28;20061;-76
2021/10/11 04:41:55;;;;;;;27.50;11.85;;;12.40;95.50;;;;;;5034261;28;20116;-76
2021/10/11 04:44:20;;;;;;;28.73;12.00;;;12.40;95.20;;;;;;5033818;28;20037;-76
2021/10/11 04:46:46;;;;;;;26.90;11.25;;;12.40;95.20;;;;;;5013285;28;20041;-77
2021/10/11 04:49:11;;;;;;;18.95;9.20;;;12.30;95.10;;;;;;5051357;28;20073;-76
2021/10/11 04:51:37;;;;;;;25.42;9.68;;;12.30;95.10;;;;;;5019581;28;20054;-76
2021/10/11 04:54:03;;;;;;;30.92;10.77;;;12.30;95.10;;;;;;5011676;28;20576;-77
2021/10/11 04:56:29;;;;;;;25.25;11.20;;;12.30;95.10;;;;;;5036995;28;20137;-76
2021/10/11 04:58:54;;;;;;;21.92;9.65;;;12.20;95.10;;;;;;5041812;28;20112;-77
2021/10/11 05:01:21;;;;;;;29.35;10.43;;;12.20;95.10;;;;;;5041337;28;20119;-76
2021/10/11 05:03:46;;;;;;;23.15;9.18;;;12.20;95.10;;;;;;5047398;28;20503;-76
2021/10/11 05:06:12;;;;;;;24.88;9.20;;;12.20;95.10;;;;;;5046602;28;20036;-77
2021/10/11 05:08:38;;;;;;;16.65;8.63;;;12.10;95.10;;;;;;5030835;28;20061;-77
2021/10/11 05:11:04;;;;;;;26.67;9.95;;;12.20;95.10;;;;;;5045578;28;20044;-77
2021/10/11 05:13:29;;;;;;;17.90;7.82;;;12.10;95.10;;;;;;5019290;27;20033;-77
2021/10/11 05:15:55;;;;;;;24.00;9.13;;;12.10;95.10;;;;;;5027536;28;20064;-77
2021/10/11 05:18:21;;;;;;;20.67;8.38;;;12.10;95.00;;;;;;5049306;28;20036;-76
2021/10/11 05:20:50;;;;;;;21.10;8.15;;;12.10;95.00;;;;;;5049703;28;20025;-76
2021/10/11 05:23:16;;;;;;;19.33;8.18;;;12.10;95.00;;;;;;5025353;28;20032;-76
2021/10/11 05:25:42;;;;;;;20.23;7.63;;;12.10;95.00;;;;;;5047798;28;20040;-76
2021/10/11 05:28:07;;;;;;;21.30;8.40;;;12.10;95.00;;;;;;5026045;28;20385;-76
2021/10/11 05:30:33;;;;;;;26.77;8.05;;;12.10;95.00;;;;;;5047994;28;20513;-76
2021/10/11 05:32:58;;;;;;;17.67;7.65;;;12.10;95.00;;;;;;5030413;28;20182;-77
2021/10/11 05:35:24;;;;;;;25.65;10.60;;;12.10;94.90;;;;;;5033027;27;21708;-78
2021/10/11 05:37:50;;;;;;;16.00;7.65;;;12.10;95.20;;;;;;5047263;28;20025;-77
2021/10/11 05:40:16;;;;;;;20.98;7.50;;;12.00;94.90;;;;;;5049880;28;20589;-78
2021/10/11 05:42:41;;;;;;;16.08;7.75;;;12.00;94.90;;;;;;5031899;28;20037;-78
2021/10/11 05:45:08;;;;;;;19.83;7.07;;;11.90;94.80;;;;;;5032573;28;20481;-77
2021/10/11 05:47:33;;;;;;;16.20;7.20;;;11.80;94.80;;;;;;5048643;28;20124;-77
2021/10/11 05:49:59;;;;;;;18.45;6.72;;;11.80;94.80;;;;;;5044459;28;20541;-77
2021/10/11 05:52:25;;;;;;;14.90;6.85;;;11.80;94.80;;;;;;5047440;28;20541;-78
2021/10/11 05:54:50;;;;;;;15.05;6.50;;;11.80;94.80;;;;;;5016387;28;20029;-77
2021/10/11 05:57:16;;;;;;;14.70;6.00;;;11.70;94.80;;;;;;5031690;28;20052;-77
2021/10/11 05:59:41;;;;;;;18.05;6.45;;;11.70;94.70;;;;;;5032509;28;20049;-77
2021/10/11 06:02:07;;;;;;;16.60;6.13;;;11.60;94.70;;;;;;5050549;28;20024;-78
2021/10/11 06:04:33;;;;;;;16.25;6.68;;;11.60;94.70;;;;;;5013569;28;20025;-77
2021/10/11 06:06:58;;;;;;;23.83;6.68;;;11.50;94.60;;;;;;5027994;28;20068;-78
2021/10/11 06:09:24;;;;;;;13.48;5.95;;;11.50;94.60;;;;;;5021256;28;20033;-77
2021/10/11 06:11:50;;;;;;;20.10;6.32;;;11.40;94.60;;;;;;5040244;28;20116;-77
2021/10/11 06:14:17;;;;;;;13.68;6.10;;;11.50;94.90;;;;;;5012633;28;20089;-77
2021/10/11 06:16:43;;;;;;;14.82;6.00;;;11.40;94.50;;;;;;5012523;28;20040;-77
2021/10/11 06:19:09;;;;;;;14.50;6.53;;;11.40;94.80;;;;;;5021257;28;20473;-78
2021/10/11 06:21:35;;;;;;;14.68;6.18;;;11.40;94.40;;;;;;5049475;28;20057;-78
2021/10/11 06:24:02;;;;;;;13.48;6.10;;;11.30;94.40;;;;;;5049318;28;20098;-77
2021/10/11 06:26:28;;;;;;;14.70;6.53;;;11.30;94.40;;;;;;5028787;28;20025;-78
2021/10/11 06:28:54;;;;;;;13.05;6.85;;;11.30;94.40;;;;;;5029968;28;20037;-76
2021/10/11 06:31:19;;;;;;;15.00;6.07;;;11.30;94.40;;;;;;5012630;28;20079;-76
2021/10/11 06:33:45;;;;;;;12.88;6.38;;;11.30;94.40;;;;;;5012677;28;20397;-76
2021/10/11 06:36:11;;;;;;;19.35;6.05;;;11.30;94.40;;;;;;5012951;28;20064;-76
2021/10/11 06:38:37;;;;;;;13.98;6.13;;;11.30;94.40;;;;;;5012587;28;20026;-76
2021/10/11 06:41:03;;;;;;;14.68;6.28;;;11.30;94.60;;;;;;5030068;28;20151;-76
2021/10/11 06:43:28;;;;;;;15.63;6.60;;;11.30;94.30;;;;;;5012651;28;20030;-76
2021/10/11 06:45:54;;;;;;;12.75;5.97;;;11.30;94.30;;;;;;4993023;28;20029;-76
2021/10/11 06:48:20;;;;;;;10.68;6.00;;;11.20;94.30;;;;;;5025611;28;20037;-76
2021/10/11 06:50:46;;;;;;;11.95;6.32;;;11.30;94.30;;;;;;5009148;28;20026;-76
2021/10/11 06:53:12;;;;;;;10.85;6.38;;;11.30;94.30;;;;;;5025587;28;20398;-76
2021/10/11 06:55:39;;;;;;;10.52;5.60;;;11.40;94.30;;;;;;5010312;28;20806;-76
2021/10/11 06:58:04;;;;;;;11.32;6.13;;;11.40;94.20;;;;;;5025546;28;20026;-76
2021/10/11 07:00:30;;;;;;;17.80;6.95;;;11.50;94.20;;;;;;5010268;28;20114;-76
2021/10/11 07:02:56;;;;;;;15.10;7.18;;;11.50;94.20;;;;;;5010191;28;20058;-76
2021/10/11 07:05:21;;;;;;;15.50;7.35;;;11.60;94.20;;;;;;4992624;28;20041;-76
2021/10/11 07:07:47;;;;;;;20.88;9.35;;;11.70;94.20;;;;;;5010773;28;20072;-76
2021/10/11 07:10:13;;;;;;;19.52;9.50;;;11.70;94.20;;;;;;5025738;28;20121;-76
2021/10/11 07:12:39;;;;;;;20.77;9.50;;;11.80;94.20;;;;;;5010109;28;20026;-76
2021/10/11 07:15:05;;;;;;;25.50;10.18;;;11.90;94.30;;;;;;5046448;28;20036;-78
2021/10/11 07:17:31;;;;;;;33.33;9.73;;;12.00;94.30;;;;;;5029326;28;20101;-77
2021/10/11 07:19:56;;;;;;;23.67;8.70;;;12.00;94.30;;;;;;5048154;28;20025;-77
2021/10/11 07:22:22;;;;;;;26.92;9.32;;;12.10;94.30;;;;;;5049074;28;20032;-78
2021/10/11 07:24:48;;;;;;;17.55;7.53;;;12.20;94.30;;;;;;5030733;28;20029;-78
2021/10/11 07:27:14;;;;;;;17.92;8.10;;;12.20;94.20;;;;;;5048550;28;20104;-78
2021/10/11 07:29:41;;;;;;;18.25;6.88;;;12.30;94.20;;;;;;5030487;28;20482;-78
2021/10/11 07:32:07;;;;;;;16.58;7.72;;;12.30;94.20;;;;;;5030938;28;20053;-79
2021/10/11 07:34:33;;;;;;;18.20;7.50;;;12.40;94.20;;;;;;4994875;28;20371;-78
2021/10/11 07:37:00;;;;;;;19.00;7.50;;;12.40;94.20;;;;;;5028541;28;20139;-78
2021/10/11 07:39:26;;;;;;;20.77;7.88;;;12.50;94.20;;;;;;5029397;28;20500;-78
2021/10/11 07:41:52;;;;;;;20.08;8.85;;;12.50;94.20;;;;;;5031547;28;20061;-78
2021/10/11 07:44:17;;;;;;;19.25;7.75;;;12.50;94.10;;;;;;5032730;28;20823;-78
2021/10/11 07:46:43;;;;;;;30.83;9.25;;;12.50;94.10;;;;;;5031577;28;20079;-78
2021/10/11 07:49:09;;;;;;;19.13;8.00;;;12.60;94.10;;;;;;5015109;28;20075;-78
2021/10/11 07:51:36;;;;;;;19.85;7.68;;;12.60;94.10;;;;;;5014806;28;20030;-78
2021/10/11 07:54:02;;;;;;;20.02;8.07;;;12.60;94.00;;;;;;5032767;28;20427;-78
2021/10/11 07:56:28;;;;;;;17.95;7.25;;;12.70;94.00;;;;;;5039266;28;20540;-78
2021/10/11 07:58:54;;;;;;;26.67;7.45;;;12.80;94.00;;;;;;5027842;28;20041;-78
2021/10/11 08:01:19;;;;;;;18.33;7.32;;;12.80;93.90;;;;;;5046023;28;20032;-78
2021/10/11 08:03:45;;;;;;;16.90;6.38;;;12.90;93.80;;;;;;5032493;28;20077;-79
2021/10/11 08:06:10;;;;;;;22.40;6.30;;;13.00;94.00;;;;;;5015242;28;20034;-78
2021/10/11 08:08:36;;;;;;;17.85;5.90;;;13.10;93.60;;;;;;5032208;28;20021;-77
2021/10/11 08:11:02;;;;;;;20.67;5.80;;;13.10;93.50;;;;;;5022817;28;20021;-78
2021/10/11 08:13:28;;;;;;;15.10;5.53;;;13.10;93.40;;;;;;5051345;28;20026;-78
2021/10/11 08:15:55;;;;;;;20.27;5.50;;;13.10;93.40;;;;;;5007606;28;20772;-79
2021/10/11 08:18:21;;;;;;;16.48;5.38;;;13.20;93.40;;;;;;5028538;28;20026;-78
2021/10/11 08:20:47;;;;;;;16.52;5.00;;;13.20;93.30;;;;;;5035082;28;20036;-79
2021/10/11 08:23:13;;;;;;;14.20;5.13;;;13.20;93.20;;;;;;5049668;28;20025;-79
2021/10/11 08:25:39;;;;;;;14.85;4.72;;;13.30;93.40;;;;;;5032177;28;20452;-78
2021/10/11 08:28:05;;;;;;;15.57;5.10;;;13.30;93.00;;;;;;5027054;28;20034;-78
2021/10/11 08:30:32;;;;;;;15.55;4.72;;;13.40;93.00;;;;;;5013831;28;20386;-78
2021/10/11 08:32:58;;;;;;;22.35;5.68;;;13.40;92.90;;;;;;5031881;28;20046;-77
2021/10/11 08:35:24;;;;;;;15.85;4.90;;;13.50;92.80;;;;;;5031968;28;20644;-78
2021/10/11 08:37:50;;;;;;;14.65;4.75;;;13.50;92.70;;;;;;5032226;28;20104;-77
2021/10/11 08:40:17;;;;;;;15.43;4.47;;;13.60;92.70;;;;;;5032000;28;20055;-78
2021/10/11 08:42:44;;;;;;;16.42;4.97;;;13.70;92.60;;;;;;5014041;28;20032;-78
2021/10/11 08:45:10;;;;;;;14.82;4.43;;;13.70;92.40;;;;;;5047252;28;20029;-78
2021/10/11 08:47:36;;;;;;;16.90;4.28;;;13.70;92.20;;;;;;5031843;28;20030;-78
2021/10/11 08:50:02;;;;;;;10.70;4.00;;;13.70;92.20;;;;;;5030560;28;20032;-78
2021/10/11 08:52:27;;;;;;;15.15;4.60;;;13.80;92.20;;;;;;5031626;28;20036;-78
2021/10/11 08:54:54;;;;;;;11.27;4.03;;;13.70;92.10;;;;;;5031798;28;20026;-77
2021/10/11 08:57:21;;;;;;;13.23;4.15;;;13.70;92.00;;;;;;5042538;28;20021;-78
2021/10/11 08:59:48;;;;;;;14.15;4.40;;;13.70;92.00;;;;;;5011948;28;20075;-78
2021/10/11 09:02:16;;;;;;;16.23;4.50;;;13.70;92.10;;;;;;5028270;28;20113;-78
2021/10/11 09:04:56;;;;;;;14.90;4.90;;;13.70;92.10;;;;;;5083307;28;20025;-78
2021/10/11 09:07:27;;;;;;;17.10;4.30;;;13.70;92.30;;;;;;5000715;28;20044;-78
2021/10/11 09:09:56;;;;;;;11.23;3.85;;;13.70;92.10;;;;;;5048232;28;20036;-77
2021/10/11 09:12:22;;;;;;;;;;;13.80;92.00;;;;;;5034029;28;20025;-78
2021/10/11 09:15:13;;;;;;;15.38;4.63;;;14.00;92.00;;;;;;5033489;28;19905;-78
2021/10/11 09:17:46;;;;;;;15.43;3.83;;;14.30;91.60;;;;;;5013992;28;20057;-77
2021/10/11 09:20:15;;;;;;;20.35;4.18;;;14.60;91.20;;;;;;5011772;28;20026;-78
2021/10/11 09:22:42;;;;;;;12.00;3.22;;;14.70;90.50;;;;;;5011566;28;20041;-78
2021/10/11 09:25:09;;;;;;;14.30;3.72;;;14.80;90.40;;;;;;5011506;28;20470;-78
2021/10/11 09:27:42;;;;;;;19.23;3.78;;;14.90;90.10;;;;;;5009342;28;20033;-78
2021/10/11 09:30:09;;;;;;;14.18;3.35;;;15.00;89.40;;;;;;5000319;28;20025;-78
2021/10/11 09:32:35;;;;;;;15.73;2.80;;;15.00;88.80;;;;;;5028936;28;20042;-78
2021/10/11 09:35:11;;;;;;;14.55;3.25;;;15.10;88.40;;;;;;5055894;28;20044;-78
2021/10/11 09:37:37;;;;;;;13.90;3.00;;;15.20;88.00;;;;;;5001867;28;20448;-78
2021/10/11 09:40:05;;;;;;;15.73;2.90;;;15.20;87.30;;;;;;5031895;28;20400;-79
2021/10/11 09:42:30;;;;;;;10.63;3.03;;;15.20;86.80;;;;;;5050739;28;20471;-78
2021/10/11 09:44:57;;;;;;;11.23;2.72;;;15.20;86.80;;;;;;5033210;28;20112;-79
2021/10/11 09:47:40;;;;;;;17.88;2.70;;;15.20;86.80;;;;;;5051285;28;20094;-78
2021/10/11 09:50:12;;;;;;;11.25;2.92;;;15.20;86.90;;;;;;5032978;28;20025;-78
2021/10/11 09:52:39;;;;;;;15.77;3.00;;;15.30;87.20;;;;;;5033039;28;20035;-79
2021/10/11 09:55:07;;;;;;;13.23;3.13;;;15.30;87.40;;;;;;5036651;28;20038;-78
2021/10/11 09:57:34;;;;;;;19.52;2.92;;;15.20;87.10;;;;;;5030593;28;20030;-78
2021/10/11 10:00:08;;;;;;;11.57;2.58;;;15.20;87.50;;;;;;5030611;28;20026;-79
2021/10/11 10:02:37;;;;;;;13.02;3.08;;;15.20;87.60;;;;;;4993118;28;20049;-78
2021/10/11 10:05:04;;;;;;;12.00;2.78;;;15.20;87.60;;;;;;5010053;28;20029;-78
2021/10/11 10:07:34;;;;;;;11.40;2.97;;;15.20;87.50;;;;;;5009804;28;20041;-78
2021/10/11 10:10:03;;;;;;;14.25;2.80;;;15.10;87.50;;;;;;5010831;28;20029;-78
2021/10/11 10:12:29;;;;;;;17.48;3.05;;;15.10;87.50;;;;;;5025494;28;20040;-78
2021/10/11 10:15:03;;;;;;;16.35;3.15;;;15.10;87.60;;;;;;5025900;28;20398;-78
2021/10/11 10:17:31;;;;;;;12.05;3.20;;;15.00;87.60;;;;;;5010753;28;20022;-78
2021/10/11 10:20:13;;;;;;;13.05;3.53;;;15.00;87.70;;;;;;5010602;28;20509;-78
2021/10/11 10:22:39;;;;;;;19.70;3.72;;;15.00;88.30;;;;;;5041612;28;20041;-78
2021/10/11 10:25:10;;;;;;;13.90;3.33;;;15.00;88.30;;;;;;5041310;28;20029;-78
2021/10/11 10:27:40;;;;;;;10.70;3.03;;;15.00;88.20;;;;;;5013640;28;20041;-78
2021/10/11 10:30:19;;;;;;;12.20;3.10;;;15.00;88.10;;;;;;5008719;28;20030;-78
2021/10/11 10:33:01;;;;;;;16.30;4.00;;;15.10;87.90;;;;;;5013228;28;20048;-78
2021/10/11 10:35:30;;;;;;;16.65;3.78;;;15.10;88.70;;;;;;5042364;28;20074;-77
2021/10/11 10:37:57;;;;;;;13.07;3.28;;;15.10;88.60;;;;;;5028827;28;20112;-79
2021/10/11 10:40:32;;;;;;;14.82;3.63;;;15.10;88.20;;;;;;5033334;28;20021;-78
2021/10/11 10:43:06;;;;;;;13.98;3.22;;;15.10;88.00;;;;;;5049698;28;20029;-78
2021/10/11 10:45:35;;;;;;;18.10;3.47;;;15.10;87.80;;;;;;5032695;28;20081;-77
2021/10/11 10:48:01;;;;;;;10.95;2.65;;;15.10;88.20;;;;;;5032309;28;20033;-77
2021/10/11 10:50:30;;;;;;;15.75;2.95;;;15.00;88.20;;;;;;5032248;28;20101;-78
2021/10/11 10:52:59;;;;;;;11.95;2.47;;;15.00;88.20;;;;;;5032186;28;20121;-78
2021/10/11 10:55:26;;;;;;;13.90;3.05;;;15.00;88.50;;;;;;5049408;28;20029;-77
2021/10/11 10:58:04;;;;;;;16.10;2.78;;;15.00;88.80;;;;;;5031907;28;20033;-77
2021/10/11 11:00:30;;;;;;;15.77;2.97;;;15.00;88.70;;;;;;5049866;28;20021;-77
2021/10/11 11:02:56;;;;;;;19.55;3.10;;;15.00;88.80;;;;;;5015716;28;20263;-78
2021/10/11 11:05:24;;;;;;;12.93;2.95;;;15.00;89.10;;;;;;5032069;28;20028;-78
2021/10/11 11:07:54;;;;;;;11.05;3.15;;;14.90;89.30;;;;;;5050084;28;20098;-78
2021/10/11 11:10:26;;;;;;;10.57;2.95;;;14.90;89.30;;;;;;5049771;28;20029;-78
2021/10/11 11:12:56;;;;;;;15.10;3.80;;;15.00;89.50;;;;;;5031878;28;20029;-77
2021/10/11 11:15:24;;;;;;;13.07;2.75;;;15.00;89.60;;;;;;5031901;28;20492;-78
2021/10/11 11:17:50;;;;;;;15.27;2.90;;;15.10;89.60;;;;;;5045582;28;20371;-78
2021/10/11 11:20:20;;;;;;;10.48;3.08;;;15.10;89.20;;;;;;5033202;28;20087;-78
2021/10/11 11:22:48;;;;;;;16.40;2.83;;;15.20;89.00;;;;;;5032834;28;20022;-78
2021/10/11 11:25:14;;;;;;;12.97;3.20;;;15.20;89.00;;;;;;5032893;28;20037;-77
2021/10/11 11:27:42;;;;;;;11.40;2.70;;;15.30;89.00;;;;;;5033041;28;20104;-78
2021/10/11 11:30:11;;;;;;;14.60;3.40;;;15.40;89.60;;;;;;5015191;28;20541;-77
2021/10/11 11:32:58;;;;;;;12.02;3.40;;;15.50;89.00;;;;;;5031938;28;20097;-78
2021/10/11 11:35:26;;;;;;;15.45;3.13;;;15.60;88.80;;;;;;5031852;28;20059;-77
2021/10/11 11:37:55;;;;;;;13.40;2.97;;;15.60;88.20;;;;;;5014480;28;20034;-77
2021/10/11 11:40:24;;;;;;;13.82;2.53;;;15.70;88.00;;;;;;5029563;28;20057;-77
2021/10/11 11:42:50;;;;;;;9.55;2.65;;;15.80;88.10;;;;;;5012472;28;20129;-78
2021/10/11 11:45:18;;;;;;;14.77;3.25;;;15.90;88.00;;;;;;5029745;28;20026;-78
2021/10/11 11:47:44;;;;;;;13.35;2.50;;;15.90;87.20;;;;;;5030647;28;20474;-78
2021/10/11 11:50:24;;;;;;;17.92;2.63;;;15.90;86.80;;;;;;5029709;28;20029;-78
2021/10/11 11:53:05;;;;;;;14.93;2.75;;;15.90;85.80;;;;;;5029331;28;20028;-78
2021/10/11 11:55:31;;;;;;;19.45;2.70;;;15.90;85.70;;;;;;5014572;28;20028;-78
2021/10/11 11:57:57;;;;;;;15.75;2.85;;;15.90;86.00;;;;;;5032833;28;20103;-77
2021/10/11 12:00:24;;;;;;;9.93;2.50;;;16.00;85.60;;;;;;5015021;28;20032;-77
2021/10/11 12:02:51;;;;;;;17.88;2.60;;;16.00;85.30;;;;;;5032658;28;20112;-78
2021/10/11 12:05:17;;;;;;;11.98;2.28;;;16.00;85.10;;;;;;5032474;28;20205;-78
2021/10/11 12:07:44;;;;;;;9.95;2.13;;;15.90;84.50;;;;;;5032394;28;20036;-77
2021/10/11 12:10:28;;;;;;;11.18;2.10;;;15.90;84.70;;;;;;5032693;28;20096;-78
2021/10/11 12:13:03;;;;;;;13.73;2.65;;;16.00;84.30;;;;;;5014859;28;20075;-77
2021/10/11 12:15:30;;;;;;;12.98;2.60;;;16.00;84.40;;;;;;5032160;28;20075;-78
2021/10/11 12:18:11;;;;;;;8.98;2.10;;;16.00;84.40;;;;;;5032113;28;20029;-77
2021/10/11 12:20:43;;;;;;;12.45;2.13;;;16.00;84.40;;;;;;5014801;28;20478;-78
2021/10/11 12:23:09;;;;;;;10.63;2.20;;;16.00;84.40;;;;;;5049470;28;20037;-78
2021/10/11 12:25:35;;;;;;;7.70;2.25;;;16.00;84.50;;;;;;5052184;28;20037;-77
2021/10/11 12:28:27;;;;;;;12.93;2.65;;;16.00;84.10;;;;;;5033821;28;20029;-77
2021/10/11 12:31:01;;;;;;;18.27;2.60;;;16.10;84.00;;;;;;5051127;28;20041;-78
2021/10/11 12:33:38;;;;;;;11.30;2.28;;;16.10;83.70;;;;;;5030894;28;20048;-77